TPC2022 KDAL-KDYS
Flight info
| Callsign | TPC2022 |
|---|---|
| Flight time | 2h 6m |
| Altitude | 8000 |
| Route | CYOTE4 ABI |
| Aircraft | C172/L-S/A |
Departure
| Time | 2026-04-25 12:07 |
|---|---|
| Airport | Dallas Love Field (KDAL) |
Arrival
| Time | 2026-04-25 14:13 |
|---|---|
| Airport | Dyess Air Force Base (KDYS) |
| Time | Latitude | Longitude | Altitude | Speed | Heading |
|---|---|---|---|---|---|
| 2026-04-25 11:29 | 32.84920 | -96.84399 | 488 ft | 0 kts | 136° |
| 2026-04-25 11:59 | 32.84913 | -96.84401 | 488 ft | 4 kts | 198° |
| 2026-04-25 12:00 | 32.84897 | -96.84444 | 488 ft | 5 kts | 307° |
| 2026-04-25 12:00 | 32.84923 | -96.84476 | 488 ft | 7 kts | 314° |
| 2026-04-25 12:00 | 32.84968 | -96.84618 | 489 ft | 13 kts | 315° |
| 2026-04-25 12:01 | 32.85059 | -96.84721 | 489 ft | 21 kts | 316° |
| 2026-04-25 12:01 | 32.85173 | -96.84855 | 489 ft | 23 kts | 317° |
| 2026-04-25 12:01 | 32.85284 | -96.84985 | 489 ft | 21 kts | 316° |
| 2026-04-25 12:01 | 32.85377 | -96.85093 | 489 ft | 14 kts | 317° |
| 2026-04-25 12:02 | 32.85437 | -96.85178 | 489 ft | 5 kts | 287° |
| 2026-04-25 12:02 | 32.85438 | -96.85205 | 489 ft | 0 kts | 251° |
| 2026-04-25 12:06 | 32.85422 | -96.85230 | 489 ft | 10 kts | 225° |
| 2026-04-25 12:06 | 32.85365 | -96.85261 | 489 ft | 8 kts | 137° |
| 2026-04-25 12:06 | 32.85249 | -96.85126 | 489 ft | 49 kts | 135° |
| 2026-04-25 12:06 | 32.84924 | -96.84751 | 587 ft | 71 kts | 135° |
| 2026-04-25 12:07 | 32.84552 | -96.84358 | 816 ft | 71 kts | 139° |
| 2026-04-25 12:07 | 32.84188 | -96.83939 | 1012 ft | 75 kts | 137° |
| 2026-04-25 12:07 | 32.83832 | -96.83495 | 1229 ft | 75 kts | 136° |
| 2026-04-25 12:07 | 32.83473 | -96.83019 | 1403 ft | 80 kts | 136° |
| 2026-04-25 12:08 | 32.83109 | -96.82524 | 1631 ft | 76 kts | 139° |
| 2026-04-25 12:08 | 32.82742 | -96.82059 | 1802 ft | 81 kts | 139° |
| 2026-04-25 12:08 | 32.82352 | -96.81554 | 1966 ft | 83 kts | 139° |
| 2026-04-25 12:08 | 32.82019 | -96.80986 | 2167 ft | 85 kts | 128° |
| 2026-04-25 12:09 | 32.81729 | -96.80367 | 2313 ft | 89 kts | 128° |
| 2026-04-25 12:09 | 32.81393 | -96.79742 | 2499 ft | 86 kts | 132° |
| 2026-04-25 12:09 | 32.81075 | -96.79186 | 2761 ft | 78 kts | 129° |
| 2026-04-25 12:09 | 32.80784 | -96.78619 | 2903 ft | 85 kts | 127° |
| 2026-04-25 12:10 | 32.80378 | -96.78186 | 3106 ft | 76 kts | 174° |
| 2026-04-25 12:10 | 32.79859 | -96.78205 | 3312 ft | 74 kts | 181° |
| 2026-04-25 12:10 | 32.79326 | -96.78198 | 3509 ft | 74 kts | 178° |
| 2026-04-25 12:10 | 32.78672 | -96.78154 | 3165 ft | 114 kts | 179° |
| 2026-04-25 12:11 | 32.77922 | -96.78130 | 3090 ft | 104 kts | 181° |
| 2026-04-25 12:11 | 32.77194 | -96.78114 | 3037 ft | 103 kts | 179° |
| 2026-04-25 12:11 | 32.76451 | -96.78072 | 2941 ft | 107 kts | 179° |
| 2026-04-25 12:11 | 32.75760 | -96.78190 | 2993 ft | 101 kts | 210° |
| 2026-04-25 12:12 | 32.75428 | -96.78924 | 3008 ft | 109 kts | 261° |
| 2026-04-25 12:12 | 32.75427 | -96.79542 | 2931 ft | 116 kts | 263° |
| 2026-04-25 12:12 | 32.75424 | -96.80827 | 2907 ft | 113 kts | 264° |
| 2026-04-25 12:12 | 32.75444 | -96.81754 | 2916 ft | 113 kts | 265° |
| 2026-04-25 12:13 | 32.75467 | -96.82677 | 2926 ft | 111 kts | 264° |
| 2026-04-25 12:13 | 32.75487 | -96.83605 | 2905 ft | 114 kts | 264° |
| 2026-04-25 12:13 | 32.75518 | -96.84531 | 2992 ft | 107 kts | 265° |
| 2026-04-25 12:13 | 32.75542 | -96.85417 | 2989 ft | 110 kts | 263° |
| 2026-04-25 12:14 | 32.75562 | -96.86340 | 3004 ft | 111 kts | 265° |
| 2026-04-25 12:14 | 32.75603 | -96.87244 | 3069 ft | 107 kts | 267° |
| 2026-04-25 12:14 | 32.75870 | -96.88039 | 3180 ft | 109 kts | 302° |
| 2026-04-25 12:14 | 32.76370 | -96.88804 | 3121 ft | 118 kts | 300° |
| 2026-04-25 12:15 | 32.76742 | -96.89637 | 3123 ft | 114 kts | 273° |
| 2026-04-25 12:15 | 32.76542 | -96.90507 | 3066 ft | 108 kts | 228° |
| 2026-04-25 12:15 | 32.76042 | -96.91167 | 3059 ft | 105 kts | 220° |
| 2026-04-25 12:15 | 32.75548 | -96.91765 | 3092 ft | 103 kts | 221° |
| 2026-04-25 12:16 | 32.75029 | -96.92415 | 3005 ft | 110 kts | 224° |
| 2026-04-25 12:16 | 32.74535 | -96.93078 | 3092 ft | 100 kts | 224° |
| 2026-04-25 12:16 | 32.74107 | -96.93694 | 3155 ft | 98 kts | 225° |
| 2026-04-25 12:16 | 32.73638 | -96.94353 | 3083 ft | 106 kts | 225° |
| 2026-04-25 12:17 | 32.73158 | -96.94984 | 3146 ft | 101 kts | 222° |
| 2026-04-25 12:17 | 32.72657 | -96.95608 | 3123 ft | 104 kts | 222° |
| 2026-04-25 12:17 | 32.72265 | -96.96281 | 3193 ft | 104 kts | 249° |
| 2026-04-25 12:17 | 32.72333 | -96.97240 | 3053 ft | 121 kts | 276° |
| 2026-04-25 12:18 | 32.72512 | -96.98167 | 3109 ft | 117 kts | 275° |
| 2026-04-25 12:18 | 32.72669 | -96.99149 | 3073 ft | 120 kts | 274° |
| 2026-04-25 12:18 | 32.72821 | -97.00098 | 3137 ft | 115 kts | 276° |
| 2026-04-25 12:18 | 32.73002 | -97.01035 | 3128 ft | 119 kts | 276° |
| 2026-04-25 12:19 | 32.73338 | -97.02669 | 3068 ft | 123 kts | 277° |
| 2026-04-25 12:19 | 32.73590 | -97.03973 | 3048 ft | 122 kts | 275° |
| 2026-04-25 12:19 | 32.73723 | -97.04976 | 2995 ft | 124 kts | 270° |
| 2026-04-25 12:20 | 32.73802 | -97.05992 | 2970 ft | 121 kts | 268° |
| 2026-04-25 12:20 | 32.73859 | -97.06974 | 2985 ft | 119 kts | 267° |
| 2026-04-25 12:20 | 32.73916 | -97.07945 | 3031 ft | 115 kts | 269° |
| 2026-04-25 12:20 | 32.74186 | -97.08858 | 3013 ft | 125 kts | 301° |
| 2026-04-25 12:21 | 32.74716 | -97.09657 | 3063 ft | 122 kts | 301° |
| 2026-04-25 12:21 | 32.75218 | -97.10487 | 3053 ft | 124 kts | 299° |
| 2026-04-25 12:21 | 32.75713 | -97.11329 | 3069 ft | 124 kts | 298° |
| 2026-04-25 12:21 | 32.76221 | -97.12175 | 3032 ft | 127 kts | 299° |
| 2026-04-25 12:22 | 32.76747 | -97.13037 | 2971 ft | 131 kts | 300° |
| 2026-04-25 12:22 | 32.77179 | -97.13960 | 2912 ft | 127 kts | 278° |
| 2026-04-25 12:22 | 32.77225 | -97.14964 | 2949 ft | 118 kts | 265° |
| 2026-04-25 12:22 | 32.77244 | -97.15936 | 2955 ft | 117 kts | 263° |
| 2026-04-25 12:23 | 32.77187 | -97.16924 | 2765 ft | 129 kts | 257° |
| 2026-04-25 12:23 | 32.77064 | -97.17944 | 2854 ft | 112 kts | 256° |
| 2026-04-25 12:23 | 32.76975 | -97.18823 | 2934 ft | 110 kts | 256° |
| 2026-04-25 12:23 | 32.76851 | -97.19717 | 2976 ft | 108 kts | 253° |
| 2026-04-25 12:24 | 32.76726 | -97.20591 | 3035 ft | 107 kts | 252° |
| 2026-04-25 12:24 | 32.76561 | -97.21465 | 3036 ft | 109 kts | 252° |
| 2026-04-25 12:24 | 32.76437 | -97.22316 | 3274 ft | 98 kts | 254° |
| 2026-04-25 12:24 | 32.76311 | -97.23089 | 3509 ft | 92 kts | 251° |
| 2026-04-25 12:25 | 32.76155 | -97.23802 | 3728 ft | 89 kts | 247° |
| 2026-04-25 12:25 | 32.75965 | -97.24489 | 3953 ft | 86 kts | 243° |
| 2026-04-25 12:25 | 32.75751 | -97.25143 | 4191 ft | 83 kts | 243° |
| 2026-04-25 12:25 | 32.75533 | -97.25785 | 4391 ft | 84 kts | 243° |
| 2026-04-25 12:26 | 32.75305 | -97.26439 | 4559 ft | 87 kts | 242° |
| 2026-04-25 12:26 | 32.75064 | -97.27101 | 4777 ft | 85 kts | 244° |
| 2026-04-25 12:26 | 32.74923 | -97.27759 | 5065 ft | 78 kts | 257° |
| 2026-04-25 12:26 | 32.74865 | -97.28390 | 5265 ft | 78 kts | 253° |
| 2026-04-25 12:27 | 32.74778 | -97.29049 | 5439 ft | 82 kts | 253° |
| 2026-04-25 12:27 | 32.74674 | -97.29703 | 5655 ft | 83 kts | 257° |
| 2026-04-25 12:27 | 32.74600 | -97.30351 | 5902 ft | 78 kts | 258° |
| 2026-04-25 12:27 | 32.74553 | -97.31038 | 6012 ft | 89 kts | 262° |
| 2026-04-25 12:28 | 32.74507 | -97.31693 | 6372 ft | 67 kts | 261° |
| 2026-04-25 12:28 | 32.74452 | -97.32297 | 6467 ft | 81 kts | 255° |
| 2026-04-25 12:28 | 32.74345 | -97.32961 | 6647 ft | 84 kts | 260° |
| 2026-04-25 12:28 | 32.74313 | -97.33630 | 6882 ft | 79 kts | 260° |
| 2026-04-25 12:29 | 32.74262 | -97.34324 | 7025 ft | 85 kts | 263° |
| 2026-04-25 12:29 | 32.74213 | -97.34986 | 7241 ft | 82 kts | 262° |
| 2026-04-25 12:29 | 32.74186 | -97.35677 | 7424 ft | 83 kts | 269° |
| 2026-04-25 12:29 | 32.74195 | -97.36344 | 7631 ft | 79 kts | 259° |
| 2026-04-25 12:30 | 32.74169 | -97.37009 | 7795 ft | 82 kts | 263° |
| 2026-04-25 12:30 | 32.74133 | -97.37658 | 7986 ft | 82 kts | 268° |
| 2026-04-25 12:30 | 32.74115 | -97.38316 | 8185 ft | 79 kts | 263° |
| 2026-04-25 12:30 | 32.74032 | -97.38992 | 8305 ft | 85 kts | 259° |
| 2026-04-25 12:31 | 32.73917 | -97.39733 | 8232 ft | 101 kts | 259° |
| 2026-04-25 12:31 | 32.73762 | -97.40535 | 8213 ft | 99 kts | 256° |
| 2026-04-25 12:31 | 32.73612 | -97.41345 | 8127 ft | 102 kts | 258° |
| 2026-04-25 12:31 | 32.73489 | -97.42194 | 8090 ft | 107 kts | 259° |
| 2026-04-25 12:32 | 32.73360 | -97.43091 | 8087 ft | 112 kts | 256° |
| 2026-04-25 12:32 | 32.73130 | -97.44002 | 8035 ft | 117 kts | 249° |
| 2026-04-25 12:32 | 32.72817 | -97.44881 | 8029 ft | 112 kts | 248° |
| 2026-04-25 12:32 | 32.72527 | -97.45694 | 7982 ft | 103 kts | 248° |
| 2026-04-25 12:33 | 32.72305 | -97.46489 | 7922 ft | 99 kts | 261° |
| 2026-04-25 12:33 | 32.72241 | -97.47296 | 7834 ft | 101 kts | 264° |
| 2026-04-25 12:33 | 32.72219 | -97.48137 | 7766 ft | 98 kts | 268° |
| 2026-04-25 12:33 | 32.72269 | -97.48943 | 7725 ft | 96 kts | 271° |
| 2026-04-25 12:34 | 32.72295 | -97.49724 | 7651 ft | 97 kts | 267° |
| 2026-04-25 12:34 | 32.72302 | -97.50552 | 7558 ft | 98 kts | 266° |
| 2026-04-25 12:34 | 32.72352 | -97.51339 | 7531 ft | 96 kts | 277° |
| 2026-04-25 12:34 | 32.72409 | -97.51865 | 7498 ft | 95 kts | 265° |
| 2026-04-25 12:35 | 32.72269 | -97.52898 | 7573 ft | 97 kts | 260° |
| 2026-04-25 12:35 | 32.72172 | -97.53680 | 7704 ft | 92 kts | 257° |
| 2026-04-25 12:35 | 32.72065 | -97.54429 | 7830 ft | 89 kts | 259° |
| 2026-04-25 12:35 | 32.71960 | -97.55145 | 7921 ft | 91 kts | 256° |
| 2026-04-25 12:36 | 32.71794 | -97.55868 | 8011 ft | 91 kts | 252° |
| 2026-04-25 12:36 | 32.71686 | -97.56619 | 8079 ft | 94 kts | 264° |
| 2026-04-25 12:36 | 32.71641 | -97.57403 | 8122 ft | 98 kts | 263° |
| 2026-04-25 12:36 | 32.71600 | -97.58227 | 8141 ft | 100 kts | 266° |
| 2026-04-25 12:37 | 32.71593 | -97.59086 | 8146 ft | 104 kts | 267° |
| 2026-04-25 12:37 | 32.71594 | -97.59934 | 8176 ft | 104 kts | 266° |
| 2026-04-25 12:37 | 32.71567 | -97.60809 | 8167 ft | 106 kts | 264° |
| 2026-04-25 12:37 | 32.71532 | -97.61673 | 8219 ft | 103 kts | 265° |
| 2026-04-25 12:38 | 32.71507 | -97.62517 | 8279 ft | 101 kts | 265° |
| 2026-04-25 12:38 | 32.71467 | -97.63367 | 8277 ft | 105 kts | 264° |
| 2026-04-25 12:38 | 32.71404 | -97.64230 | 8284 ft | 106 kts | 263° |
| 2026-04-25 12:38 | 32.71329 | -97.65116 | 8153 ft | 109 kts | 262° |
| 2026-04-25 12:39 | 32.71232 | -97.65993 | 8112 ft | 104 kts | 258° |
| 2026-04-25 12:39 | 32.71034 | -97.66804 | 8086 ft | 101 kts | 245° |
| 2026-04-25 12:39 | 32.70732 | -97.67568 | 7984 ft | 105 kts | 261° |
| 2026-04-25 12:39 | 32.70766 | -97.68417 | 7940 ft | 104 kts | 273° |
| 2026-04-25 12:40 | 32.70854 | -97.69298 | 7898 ft | 108 kts | 272° |
| 2026-04-25 12:40 | 32.70929 | -97.70200 | 7843 ft | 112 kts | 271° |
| 2026-04-25 12:40 | 32.70986 | -97.71123 | 7843 ft | 110 kts | 270° |
| 2026-04-25 12:40 | 32.71030 | -97.72008 | 7882 ft | 104 kts | 269° |
| 2026-04-25 12:41 | 32.71061 | -97.72862 | 7894 ft | 104 kts | 269° |
| 2026-04-25 12:41 | 32.71114 | -97.73703 | 7936 ft | 102 kts | 273° |
| 2026-04-25 12:41 | 32.71238 | -97.74553 | 7930 ft | 104 kts | 275° |
| 2026-04-25 12:41 | 32.71363 | -97.75397 | 7948 ft | 103 kts | 275° |
| 2026-04-25 12:42 | 32.71517 | -97.76219 | 8008 ft | 100 kts | 279° |
| 2026-04-25 12:42 | 32.71658 | -97.76740 | 8063 ft | 98 kts | 285° |
| 2026-04-25 12:42 | 32.71748 | -97.77792 | 8077 ft | 99 kts | 265° |
| 2026-04-25 12:42 | 32.71748 | -97.78619 | 8081 ft | 100 kts | 266° |
| 2026-04-25 12:43 | 32.71734 | -97.79443 | 8126 ft | 98 kts | 265° |
| 2026-04-25 12:43 | 32.71703 | -97.80269 | 8099 ft | 102 kts | 264° |
| 2026-04-25 12:43 | 32.71641 | -97.81943 | 8102 ft | 105 kts | 263° |
| 2026-04-25 12:44 | 32.71576 | -97.82819 | 8101 ft | 104 kts | 262° |
| 2026-04-25 12:44 | 32.71522 | -97.83672 | 8091 ft | 105 kts | 263° |
| 2026-04-25 12:44 | 32.71449 | -97.85378 | 8151 ft | 101 kts | 263° |
| 2026-04-25 12:45 | 32.71400 | -97.86215 | 8134 ft | 104 kts | 266° |
| 2026-04-25 12:45 | 32.71464 | -97.87056 | 8180 ft | 101 kts | 273° |
| 2026-04-25 12:45 | 32.71726 | -97.88733 | 8203 ft | 104 kts | 281° |
| 2026-04-25 12:46 | 32.71931 | -97.89555 | 8214 ft | 104 kts | 281° |
| 2026-04-25 12:46 | 32.72133 | -97.90376 | 8230 ft | 103 kts | 281° |
| 2026-04-25 12:46 | 32.72333 | -97.91190 | 8239 ft | 103 kts | 281° |
| 2026-04-25 12:46 | 32.72394 | -97.92040 | 8204 ft | 104 kts | 267° |
| 2026-04-25 12:47 | 32.72391 | -97.92895 | 8250 ft | 101 kts | 266° |
| 2026-04-25 12:47 | 32.72378 | -97.93750 | 8232 ft | 104 kts | 265° |
| 2026-04-25 12:47 | 32.72351 | -97.94598 | 8249 ft | 104 kts | 265° |
| 2026-04-25 12:47 | 32.72322 | -97.95464 | 8253 ft | 104 kts | 264° |
| 2026-04-25 12:48 | 32.72287 | -97.96320 | 8242 ft | 105 kts | 265° |
| 2026-04-25 12:48 | 32.72255 | -97.97199 | 8214 ft | 105 kts | 264° |
| 2026-04-25 12:48 | 32.72224 | -97.98048 | 8253 ft | 102 kts | 264° |
| 2026-04-25 12:48 | 32.72186 | -97.98904 | 8241 ft | 103 kts | 263° |
| 2026-04-25 12:49 | 32.72137 | -97.99768 | 8166 ft | 105 kts | 263° |
| 2026-04-25 12:49 | 32.72062 | -98.00635 | 8091 ft | 104 kts | 258° |
| 2026-04-25 12:49 | 32.71941 | -98.01466 | 8059 ft | 100 kts | 259° |
| 2026-04-25 12:49 | 32.71838 | -98.02276 | 8001 ft | 101 kts | 260° |
| 2026-04-25 12:50 | 32.71743 | -98.03114 | 7927 ft | 100 kts | 259° |
| 2026-04-25 12:50 | 32.71647 | -98.03908 | 7936 ft | 95 kts | 258° |
| 2026-04-25 12:50 | 32.71527 | -98.04695 | 7899 ft | 101 kts | 255° |
| 2026-04-25 12:50 | 32.71376 | -98.05554 | 7857 ft | 107 kts | 256° |
| 2026-04-25 12:51 | 32.71242 | -98.06435 | 7845 ft | 109 kts | 257° |
| 2026-04-25 12:51 | 32.71096 | -98.07306 | 7906 ft | 104 kts | 255° |
| 2026-04-25 12:51 | 32.70916 | -98.08113 | 7924 ft | 101 kts | 253° |
| 2026-04-25 12:51 | 32.70716 | -98.08915 | 7918 ft | 100 kts | 251° |
| 2026-04-25 12:52 | 32.70496 | -98.09711 | 7862 ft | 105 kts | 250° |
| 2026-04-25 12:52 | 32.70275 | -98.10541 | 7856 ft | 104 kts | 255° |
| 2026-04-25 12:52 | 32.70180 | -98.11384 | 7848 ft | 105 kts | 266° |
| 2026-04-25 12:52 | 32.70202 | -98.12251 | 7891 ft | 102 kts | 268° |
| 2026-04-25 12:53 | 32.70227 | -98.13087 | 7899 ft | 103 kts | 268° |
| 2026-04-25 12:53 | 32.70268 | -98.13963 | 7879 ft | 106 kts | 272° |
| 2026-04-25 12:53 | 32.70380 | -98.14825 | 7915 ft | 103 kts | 275° |
| 2026-04-25 12:53 | 32.70492 | -98.15664 | 7925 ft | 103 kts | 274° |
| 2026-04-25 12:54 | 32.70604 | -98.16502 | 7986 ft | 102 kts | 274° |
| 2026-04-25 12:54 | 32.70549 | -98.17333 | 8030 ft | 102 kts | 257° |
| 2026-04-25 12:54 | 32.70421 | -98.18169 | 8048 ft | 104 kts | 259° |
| 2026-04-25 12:54 | 32.70314 | -98.18988 | 8164 ft | 97 kts | 259° |
| 2026-04-25 12:55 | 32.70206 | -98.19799 | 8208 ft | 99 kts | 262° |
| 2026-04-25 12:55 | 32.70186 | -98.20313 | 8357 ft | 89 kts | 265° |
| 2026-04-25 12:55 | 32.70144 | -98.21339 | 8334 ft | 102 kts | 264° |
| 2026-04-25 12:55 | 32.70117 | -98.22203 | 8339 ft | 104 kts | 266° |
| 2026-04-25 12:56 | 32.70075 | -98.23031 | 8444 ft | 98 kts | 265° |
| 2026-04-25 12:56 | 32.70187 | -98.23852 | 8445 ft | 107 kts | 290° |
| 2026-04-25 12:56 | 32.70581 | -98.24638 | 8440 ft | 111 kts | 297° |
| 2026-04-25 12:56 | 32.70992 | -98.25436 | 8386 ft | 116 kts | 294° |
| 2026-04-25 12:57 | 32.71413 | -98.26285 | 8308 ft | 120 kts | 296° |
| 2026-04-25 12:57 | 32.71870 | -98.27110 | 8319 ft | 117 kts | 297° |
| 2026-04-25 12:57 | 32.72300 | -98.27907 | 8338 ft | 115 kts | 296° |
| 2026-04-25 12:57 | 32.72658 | -98.28720 | 8383 ft | 108 kts | 278° |
| 2026-04-25 12:58 | 32.72506 | -98.29588 | 8313 ft | 113 kts | 238° |
| 2026-04-25 12:58 | 32.71928 | -98.30193 | 8334 ft | 112 kts | 221° |
| 2026-04-25 12:58 | 32.71313 | -98.30756 | 8364 ft | 109 kts | 222° |
| 2026-04-25 12:58 | 32.70705 | -98.31309 | 8238 ft | 111 kts | 222° |
| 2026-04-25 12:59 | 32.70093 | -98.31872 | 8125 ft | 110 kts | 222° |
| 2026-04-25 12:59 | 32.69492 | -98.32426 | 7997 ft | 111 kts | 222° |
| 2026-04-25 12:59 | 32.68886 | -98.32976 | 8019 ft | 105 kts | 223° |
| 2026-04-25 12:59 | 32.68570 | -98.33680 | 8093 ft | 96 kts | 253° |
| 2026-04-25 13:00 | 32.68382 | -98.34457 | 8104 ft | 97 kts | 254° |
| 2026-04-25 13:00 | 32.68319 | -98.34714 | 8109 ft | 98 kts | 252° |
| 2026-04-25 13:00 | 32.68000 | -98.36067 | 8107 ft | 103 kts | 257° |
| 2026-04-25 13:00 | 32.67851 | -98.36916 | 8099 ft | 106 kts | 257° |
| 2026-04-25 13:01 | 32.67707 | -98.37769 | 8097 ft | 107 kts | 257° |
| 2026-04-25 13:01 | 32.67559 | -98.38644 | 8099 ft | 107 kts | 257° |
| 2026-04-25 13:01 | 32.67412 | -98.39509 | 8099 ft | 107 kts | 258° |
| 2026-04-25 13:01 | 32.67265 | -98.40387 | 8097 ft | 108 kts | 258° |
| 2026-04-25 13:02 | 32.67118 | -98.41254 | 8098 ft | 108 kts | 258° |
| 2026-04-25 13:02 | 32.66970 | -98.42133 | 8100 ft | 107 kts | 258° |
| 2026-04-25 13:02 | 32.66826 | -98.42999 | 8099 ft | 108 kts | 258° |
| 2026-04-25 13:02 | 32.66684 | -98.43868 | 8099 ft | 107 kts | 258° |
| 2026-04-25 13:03 | 32.66538 | -98.44739 | 8098 ft | 107 kts | 258° |
| 2026-04-25 13:03 | 32.66393 | -98.45601 | 8098 ft | 107 kts | 258° |
| 2026-04-25 13:03 | 32.66246 | -98.46469 | 8098 ft | 107 kts | 258° |
| 2026-04-25 13:03 | 32.66098 | -98.47340 | 8101 ft | 107 kts | 258° |
| 2026-04-25 13:04 | 32.65952 | -98.48208 | 8102 ft | 107 kts | 258° |
| 2026-04-25 13:04 | 32.65810 | -98.49064 | 8103 ft | 107 kts | 258° |
| 2026-04-25 13:04 | 32.65665 | -98.49930 | 8104 ft | 107 kts | 258° |
| 2026-04-25 13:04 | 32.65518 | -98.50804 | 8105 ft | 107 kts | 258° |
| 2026-04-25 13:05 | 32.65372 | -98.51673 | 8105 ft | 107 kts | 258° |
| 2026-04-25 13:05 | 32.65228 | -98.52531 | 8104 ft | 107 kts | 258° |
| 2026-04-25 13:05 | 32.65083 | -98.53412 | 8105 ft | 108 kts | 258° |
| 2026-04-25 13:05 | 32.64940 | -98.54280 | 8103 ft | 108 kts | 258° |
| 2026-04-25 13:06 | 32.64796 | -98.55154 | 8103 ft | 107 kts | 258° |
| 2026-04-25 13:06 | 32.64653 | -98.56020 | 8103 ft | 107 kts | 258° |
| 2026-04-25 13:06 | 32.64508 | -98.56892 | 8103 ft | 107 kts | 258° |
| 2026-04-25 13:06 | 32.64364 | -98.57767 | 8104 ft | 107 kts | 258° |
| 2026-04-25 13:07 | 32.64223 | -98.58627 | 8102 ft | 107 kts | 258° |
| 2026-04-25 13:07 | 32.64080 | -98.59492 | 8099 ft | 107 kts | 258° |
| 2026-04-25 13:07 | 32.63933 | -98.60370 | 8098 ft | 107 kts | 258° |
| 2026-04-25 13:07 | 32.63789 | -98.61229 | 8099 ft | 107 kts | 258° |
| 2026-04-25 13:08 | 32.63644 | -98.62105 | 8100 ft | 107 kts | 258° |
| 2026-04-25 13:08 | 32.63499 | -98.62968 | 8103 ft | 107 kts | 258° |
| 2026-04-25 13:08 | 32.63352 | -98.63844 | 8107 ft | 107 kts | 258° |
| 2026-04-25 13:08 | 32.63208 | -98.64705 | 8104 ft | 107 kts | 258° |
| 2026-04-25 13:09 | 32.63062 | -98.65571 | 8107 ft | 107 kts | 258° |
| 2026-04-25 13:09 | 32.62921 | -98.66449 | 8108 ft | 108 kts | 261° |
| 2026-04-25 13:09 | 32.62871 | -98.67337 | 8108 ft | 108 kts | 266° |
| 2026-04-25 13:09 | 32.62848 | -98.68233 | 8107 ft | 108 kts | 266° |
| 2026-04-25 13:10 | 32.62825 | -98.69122 | 8106 ft | 108 kts | 266° |
| 2026-04-25 13:10 | 32.62803 | -98.70013 | 8103 ft | 108 kts | 266° |
| 2026-04-25 13:10 | 32.62779 | -98.70913 | 8109 ft | 108 kts | 266° |
| 2026-04-25 13:10 | 32.62755 | -98.71810 | 8113 ft | 109 kts | 266° |
| 2026-04-25 13:11 | 32.62730 | -98.72716 | 8104 ft | 109 kts | 266° |
| 2026-04-25 13:11 | 32.62705 | -98.73608 | 8107 ft | 108 kts | 266° |
| 2026-04-25 13:11 | 32.62677 | -98.74506 | 8113 ft | 108 kts | 266° |
| 2026-04-25 13:11 | 32.62650 | -98.75393 | 8121 ft | 108 kts | 266° |
| 2026-04-25 13:12 | 32.62622 | -98.76285 | 8121 ft | 109 kts | 266° |
| 2026-04-25 13:12 | 32.62595 | -98.77192 | 8120 ft | 109 kts | 266° |
| 2026-04-25 13:12 | 32.62567 | -98.78095 | 8126 ft | 110 kts | 266° |
| 2026-04-25 13:12 | 32.62548 | -98.78693 | 8128 ft | 111 kts | 266° |
| 2026-04-25 13:13 | 32.62510 | -98.79922 | 8109 ft | 111 kts | 266° |
| 2026-04-25 13:13 | 32.62483 | -98.80835 | 8090 ft | 109 kts | 266° |
| 2026-04-25 13:13 | 32.62458 | -98.81721 | 8096 ft | 108 kts | 266° |
| 2026-04-25 13:13 | 32.62432 | -98.82617 | 8111 ft | 108 kts | 266° |
| 2026-04-25 13:14 | 32.62408 | -98.83516 | 8103 ft | 109 kts | 266° |
| 2026-04-25 13:14 | 32.62330 | -98.84397 | 8102 ft | 108 kts | 260° |
| 2026-04-25 13:14 | 32.62206 | -98.85286 | 8098 ft | 108 kts | 259° |
| 2026-04-25 13:14 | 32.62081 | -98.86165 | 8103 ft | 108 kts | 261° |
| 2026-04-25 13:15 | 32.62118 | -98.87061 | 8101 ft | 109 kts | 275° |
| 2026-04-25 13:15 | 32.62254 | -98.87950 | 8104 ft | 110 kts | 278° |
| 2026-04-25 13:15 | 32.62441 | -98.88831 | 8097 ft | 110 kts | 282° |
| 2026-04-25 13:15 | 32.62679 | -98.89701 | 8090 ft | 109 kts | 286° |
| 2026-04-25 13:16 | 32.62964 | -98.90531 | 8104 ft | 109 kts | 288° |
| 2026-04-25 13:16 | 32.63263 | -98.91360 | 8102 ft | 109 kts | 289° |
| 2026-04-25 13:16 | 32.63568 | -98.92193 | 8107 ft | 109 kts | 289° |
| 2026-04-25 13:16 | 32.63875 | -98.93017 | 8098 ft | 110 kts | 290° |
| 2026-04-25 13:17 | 32.64084 | -98.93858 | 8096 ft | 107 kts | 262° |
| 2026-04-25 13:17 | 32.63765 | -98.94649 | 8099 ft | 107 kts | 238° |
| 2026-04-25 13:17 | 32.63316 | -98.95373 | 8100 ft | 109 kts | 236° |
| 2026-04-25 13:17 | 32.62863 | -98.96089 | 8091 ft | 109 kts | 236° |
| 2026-04-25 13:18 | 32.62403 | -98.96815 | 8085 ft | 108 kts | 236° |
| 2026-04-25 13:18 | 32.61945 | -98.97536 | 8088 ft | 108 kts | 236° |
| 2026-04-25 13:18 | 32.61498 | -98.98242 | 8088 ft | 108 kts | 236° |
| 2026-04-25 13:18 | 32.61046 | -98.98956 | 8093 ft | 108 kts | 236° |
| 2026-04-25 13:19 | 32.60590 | -98.99676 | 8094 ft | 109 kts | 236° |
| 2026-04-25 13:19 | 32.60131 | -99.00401 | 8094 ft | 109 kts | 236° |
| 2026-04-25 13:19 | 32.59674 | -99.01125 | 8097 ft | 109 kts | 237° |
| 2026-04-25 13:19 | 32.59522 | -99.01366 | 8099 ft | 109 kts | 237° |
| 2026-04-25 13:20 | 32.58764 | -99.02568 | 8101 ft | 109 kts | 237° |
| 2026-04-25 13:20 | 32.58309 | -99.03301 | 8103 ft | 109 kts | 237° |
| 2026-04-25 13:20 | 32.57861 | -99.04030 | 8102 ft | 109 kts | 237° |
| 2026-04-25 13:20 | 32.57413 | -99.04767 | 8103 ft | 109 kts | 238° |
| 2026-04-25 13:21 | 32.56975 | -99.05496 | 8100 ft | 109 kts | 238° |
| 2026-04-25 13:21 | 32.56536 | -99.06232 | 8101 ft | 109 kts | 238° |
| 2026-04-25 13:21 | 32.56173 | -99.07001 | 8099 ft | 108 kts | 252° |
| 2026-04-25 13:21 | 32.55967 | -99.07856 | 8099 ft | 107 kts | 256° |
| 2026-04-25 13:22 | 32.55782 | -99.08717 | 8101 ft | 107 kts | 256° |
| 2026-04-25 13:22 | 32.55603 | -99.09577 | 8105 ft | 107 kts | 256° |
| 2026-04-25 13:22 | 32.55424 | -99.10435 | 8109 ft | 107 kts | 257° |
| 2026-04-25 13:23 | 32.55065 | -99.12149 | 8115 ft | 107 kts | 257° |
| 2026-04-25 13:23 | 32.54883 | -99.13013 | 8115 ft | 107 kts | 257° |
| 2026-04-25 13:23 | 32.54705 | -99.13866 | 8117 ft | 107 kts | 257° |
| 2026-04-25 13:23 | 32.54524 | -99.14726 | 8117 ft | 108 kts | 257° |
| 2026-04-25 13:24 | 32.54342 | -99.15595 | 8116 ft | 107 kts | 257° |
| 2026-04-25 13:24 | 32.54160 | -99.16460 | 8116 ft | 108 kts | 256° |
| 2026-04-25 13:24 | 32.53981 | -99.17318 | 8117 ft | 108 kts | 257° |
| 2026-04-25 13:24 | 32.53802 | -99.18185 | 8118 ft | 108 kts | 257° |
| 2026-04-25 13:25 | 32.53622 | -99.19051 | 8114 ft | 108 kts | 257° |
| 2026-04-25 13:25 | 32.53446 | -99.19912 | 8112 ft | 107 kts | 258° |
| 2026-04-25 13:25 | 32.53389 | -99.20781 | 8154 ft | 104 kts | 266° |
| 2026-04-25 13:25 | 32.53346 | -99.21661 | 8122 ft | 107 kts | 266° |
| 2026-04-25 13:26 | 32.53295 | -99.22530 | 8156 ft | 105 kts | 264° |
| 2026-04-25 13:26 | 32.53285 | -99.23401 | 8173 ft | 105 kts | 271° |
| 2026-04-25 13:26 | 32.53325 | -99.24260 | 8174 ft | 106 kts | 272° |
| 2026-04-25 13:26 | 32.53367 | -99.25143 | 8173 ft | 106 kts | 271° |
| 2026-04-25 13:27 | 32.53411 | -99.26005 | 8211 ft | 104 kts | 272° |
| 2026-04-25 13:27 | 32.53459 | -99.26862 | 8254 ft | 103 kts | 272° |
| 2026-04-25 13:27 | 32.53529 | -99.27693 | 8293 ft | 102 kts | 275° |
| 2026-04-25 13:27 | 32.53616 | -99.28532 | 8256 ft | 103 kts | 276° |
| 2026-04-25 13:28 | 32.53713 | -99.29394 | 8107 ft | 106 kts | 276° |
| 2026-04-25 13:28 | 32.53749 | -99.29684 | 8085 ft | 105 kts | 277° |
| 2026-04-25 13:28 | 32.53843 | -99.31137 | 8054 ft | 103 kts | 259° |
| 2026-04-25 13:28 | 32.53688 | -99.31977 | 8016 ft | 106 kts | 258° |
| 2026-04-25 13:29 | 32.53531 | -99.32812 | 8080 ft | 100 kts | 258° |
| 2026-04-25 13:29 | 32.53387 | -99.33614 | 8108 ft | 99 kts | 258° |
| 2026-04-25 13:29 | 32.53233 | -99.34418 | 8102 ft | 101 kts | 257° |
| 2026-04-25 13:30 | 32.52929 | -99.36043 | 8129 ft | 101 kts | 258° |
| 2026-04-25 13:30 | 32.52785 | -99.36868 | 8153 ft | 100 kts | 260° |
| 2026-04-25 13:30 | 32.52656 | -99.37693 | 8145 ft | 103 kts | 260° |
| 2026-04-25 13:31 | 32.52400 | -99.39361 | 8185 ft | 101 kts | 260° |
| 2026-04-25 13:31 | 32.52274 | -99.40189 | 8167 ft | 103 kts | 260° |
| 2026-04-25 13:31 | 32.52150 | -99.41009 | 8239 ft | 98 kts | 260° |
| 2026-04-25 13:31 | 32.52029 | -99.41818 | 8199 ft | 104 kts | 261° |
| 2026-04-25 13:32 | 32.51902 | -99.42658 | 8250 ft | 99 kts | 260° |
| 2026-04-25 13:32 | 32.51783 | -99.43451 | 8253 ft | 102 kts | 260° |
| 2026-04-25 13:32 | 32.51657 | -99.44291 | 8261 ft | 101 kts | 260° |
| 2026-04-25 13:32 | 32.51536 | -99.45099 | 8292 ft | 101 kts | 261° |
| 2026-04-25 13:33 | 32.51408 | -99.45940 | 8282 ft | 102 kts | 260° |
| 2026-04-25 13:33 | 32.51289 | -99.46751 | 8342 ft | 98 kts | 262° |
| 2026-04-25 13:33 | 32.51214 | -99.47562 | 8363 ft | 99 kts | 265° |
| 2026-04-25 13:33 | 32.51172 | -99.48109 | 8361 ft | 101 kts | 265° |
| 2026-04-25 13:34 | 32.51088 | -99.49181 | 8472 ft | 93 kts | 264° |
| 2026-04-25 13:34 | 32.51028 | -99.49966 | 8454 ft | 100 kts | 265° |
| 2026-04-25 13:34 | 32.50966 | -99.50789 | 8481 ft | 98 kts | 265° |
| 2026-04-25 13:34 | 32.50907 | -99.51584 | 8538 ft | 97 kts | 265° |
| 2026-04-25 13:35 | 32.50845 | -99.52425 | 8472 ft | 105 kts | 265° |
| 2026-04-25 13:35 | 32.50786 | -99.53239 | 8590 ft | 94 kts | 265° |
| 2026-04-25 13:35 | 32.50730 | -99.54035 | 8550 ft | 101 kts | 265° |
| 2026-04-25 13:35 | 32.50670 | -99.54895 | 8468 ft | 106 kts | 265° |
| 2026-04-25 13:36 | 32.50608 | -99.55775 | 8352 ft | 109 kts | 265° |
| 2026-04-25 13:36 | 32.50546 | -99.56676 | 8227 ft | 110 kts | 265° |
| 2026-04-25 13:36 | 32.50485 | -99.57577 | 8101 ft | 111 kts | 265° |
| 2026-04-25 13:36 | 32.50425 | -99.58487 | 7974 ft | 111 kts | 265° |
| 2026-04-25 13:37 | 32.50365 | -99.59409 | 7846 ft | 111 kts | 265° |
| 2026-04-25 13:37 | 32.50309 | -99.60310 | 7780 ft | 107 kts | 266° |
| 2026-04-25 13:37 | 32.50256 | -99.61153 | 7786 ft | 100 kts | 265° |
| 2026-04-25 13:37 | 32.50206 | -99.61966 | 7790 ft | 97 kts | 265° |
| 2026-04-25 13:38 | 32.50160 | -99.62754 | 7790 ft | 95 kts | 265° |
| 2026-04-25 13:38 | 32.50115 | -99.63535 | 7787 ft | 94 kts | 265° |
| 2026-04-25 13:38 | 32.50072 | -99.64312 | 7787 ft | 93 kts | 265° |
| 2026-04-25 13:38 | 32.50030 | -99.65073 | 7786 ft | 92 kts | 265° |
| 2026-04-25 13:39 | 32.49986 | -99.65833 | 7789 ft | 92 kts | 265° |
| 2026-04-25 13:39 | 32.49945 | -99.66594 | 7793 ft | 92 kts | 265° |
| 2026-04-25 13:39 | 32.49902 | -99.67361 | 7794 ft | 93 kts | 265° |
| 2026-04-25 13:39 | 32.49860 | -99.68125 | 7794 ft | 93 kts | 265° |
| 2026-04-25 13:40 | 32.49817 | -99.68899 | 7794 ft | 93 kts | 265° |
| 2026-04-25 13:40 | 32.49775 | -99.69664 | 7793 ft | 93 kts | 265° |
| 2026-04-25 13:40 | 32.49733 | -99.70430 | 7792 ft | 93 kts | 265° |
| 2026-04-25 13:40 | 32.49690 | -99.71197 | 7793 ft | 94 kts | 265° |
| 2026-04-25 13:41 | 32.49645 | -99.71978 | 7789 ft | 94 kts | 265° |
| 2026-04-25 13:41 | 32.49601 | -99.72748 | 7786 ft | 94 kts | 265° |
| 2026-04-25 13:41 | 32.49559 | -99.73524 | 7786 ft | 94 kts | 265° |
| 2026-04-25 13:41 | 32.49516 | -99.74287 | 7785 ft | 92 kts | 266° |
| 2026-04-25 13:42 | 32.49488 | -99.75014 | 7626 ft | 91 kts | 268° |
| 2026-04-25 13:42 | 32.49489 | -99.75770 | 7314 ft | 94 kts | 268° |
| 2026-04-25 13:42 | 32.49474 | -99.76555 | 6999 ft | 98 kts | 266° |
| 2026-04-25 13:42 | 32.49424 | -99.77306 | 7138 ft | 90 kts | 261° |
| 2026-04-25 13:43 | 32.49312 | -99.78028 | 7288 ft | 85 kts | 253° |
| 2026-04-25 13:43 | 32.49128 | -99.78676 | 7442 ft | 82 kts | 251° |
| 2026-04-25 13:43 | 32.48939 | -99.79315 | 7578 ft | 83 kts | 257° |
| 2026-04-25 13:43 | 32.48886 | -99.80026 | 7658 ft | 87 kts | 265° |
| 2026-04-25 13:44 | 32.48819 | -99.80705 | 7849 ft | 81 kts | 258° |
| 2026-04-25 13:44 | 32.48677 | -99.81373 | 7934 ft | 86 kts | 255° |
| 2026-04-25 13:44 | 32.48512 | -99.82111 | 7929 ft | 98 kts | 257° |
| 2026-04-25 13:44 | 32.48362 | -99.82899 | 8009 ft | 101 kts | 258° |
| 2026-04-25 13:45 | 32.48266 | -99.83452 | 8012 ft | 102 kts | 261° |
| 2026-04-25 13:45 | 32.48124 | -99.84563 | 7996 ft | 104 kts | 261° |
| 2026-04-25 13:45 | 32.48007 | -99.85421 | 7972 ft | 106 kts | 260° |
| 2026-04-25 13:45 | 32.47874 | -99.86282 | 7961 ft | 105 kts | 258° |
| 2026-04-25 13:46 | 32.47510 | -99.87009 | 7965 ft | 109 kts | 220° |
| 2026-04-25 13:46 | 32.46740 | -99.87168 | 7964 ft | 121 kts | 175° |
| 2026-04-25 13:46 | 32.45924 | -99.86870 | 7986 ft | 120 kts | 169° |
| 2026-04-25 13:46 | 32.45171 | -99.86477 | 8054 ft | 119 kts | 160° |
| 2026-04-25 13:47 | 32.44421 | -99.85994 | 8043 ft | 122 kts | 163° |
| 2026-04-25 13:47 | 32.43616 | -99.85641 | 8073 ft | 119 kts | 165° |
| 2026-04-25 13:47 | 32.42874 | -99.85214 | 8084 ft | 122 kts | 166° |
| 2026-04-25 13:47 | 32.42043 | -99.84983 | 8000 ft | 124 kts | 177° |
| 2026-04-25 13:48 | 32.41239 | -99.85072 | 8001 ft | 111 kts | 215° |
| 2026-04-25 13:48 | 32.40846 | -99.85777 | 8014 ft | 104 kts | 263° |
| 2026-04-25 13:48 | 32.41115 | -99.86573 | 7974 ft | 114 kts | 313° |
| 2026-04-25 13:48 | 32.41894 | -99.86800 | 8020 ft | 121 kts | 360° |
| 2026-04-25 13:49 | 32.42710 | -99.86686 | 8030 ft | 118 kts | 358° |
| 2026-04-25 13:49 | 32.43546 | -99.86655 | 7847 ft | 118 kts | 347° |
| 2026-04-25 13:49 | 32.44365 | -99.86729 | 7667 ft | 121 kts | 348° |
| 2026-04-25 13:49 | 32.45202 | -99.86811 | 7549 ft | 117 kts | 347° |
| 2026-04-25 13:50 | 32.46025 | -99.86853 | 7397 ft | 120 kts | 355° |
| 2026-04-25 13:50 | 32.46847 | -99.86785 | 7303 ft | 117 kts | 356° |
| 2026-04-25 13:50 | 32.47669 | -99.86781 | 7137 ft | 116 kts | 342° |
| 2026-04-25 13:50 | 32.48475 | -99.86932 | 6939 ft | 119 kts | 344° |
| 2026-04-25 13:51 | 32.49279 | -99.87119 | 6831 ft | 115 kts | 340° |
| 2026-04-25 13:51 | 32.50080 | -99.87305 | 6649 ft | 119 kts | 341° |
| 2026-04-25 13:51 | 32.50885 | -99.87483 | 6505 ft | 116 kts | 341° |
| 2026-04-25 13:51 | 32.51684 | -99.87690 | 6315 ft | 118 kts | 340° |
| 2026-04-25 13:52 | 32.52492 | -99.87888 | 6161 ft | 118 kts | 341° |
| 2026-04-25 13:52 | 32.53305 | -99.88084 | 6001 ft | 118 kts | 341° |
| 2026-04-25 13:52 | 32.54106 | -99.88279 | 5877 ft | 117 kts | 341° |
| 2026-04-25 13:52 | 32.54903 | -99.88490 | 5670 ft | 120 kts | 339° |
| 2026-04-25 13:53 | 32.55723 | -99.88670 | 5555 ft | 116 kts | 343° |
| 2026-04-25 13:53 | 32.56533 | -99.88800 | 5402 ft | 118 kts | 345° |
| 2026-04-25 13:53 | 32.57340 | -99.88968 | 5252 ft | 118 kts | 343° |
| 2026-04-25 13:53 | 32.58150 | -99.89127 | 5138 ft | 116 kts | 343° |
| 2026-04-25 13:54 | 32.58957 | -99.89262 | 4998 ft | 118 kts | 344° |
| 2026-04-25 13:54 | 32.59785 | -99.89399 | 5025 ft | 121 kts | 343° |
| 2026-04-25 13:54 | 32.60619 | -99.89574 | 5028 ft | 123 kts | 338° |
| 2026-04-25 13:54 | 32.61467 | -99.89816 | 5028 ft | 124 kts | 338° |
| 2026-04-25 13:55 | 32.62306 | -99.90060 | 5027 ft | 125 kts | 338° |
| 2026-04-25 13:55 | 32.63167 | -99.90314 | 5027 ft | 126 kts | 338° |
| 2026-04-25 13:55 | 32.64017 | -99.90569 | 5028 ft | 125 kts | 338° |
| 2026-04-25 13:55 | 32.64860 | -99.90820 | 5028 ft | 125 kts | 339° |
| 2026-04-25 13:56 | 32.65718 | -99.91076 | 5031 ft | 126 kts | 338° |
| 2026-04-25 13:56 | 32.66565 | -99.91326 | 5032 ft | 126 kts | 338° |
| 2026-04-25 13:56 | 32.67432 | -99.91554 | 5034 ft | 127 kts | 343° |
| 2026-04-25 13:56 | 32.68310 | -99.91708 | 5035 ft | 128 kts | 344° |
| 2026-04-25 13:57 | 32.69188 | -99.91859 | 5031 ft | 128 kts | 344° |
| 2026-04-25 13:57 | 32.69783 | -99.91960 | 5029 ft | 128 kts | 344° |
| 2026-04-25 13:57 | 32.70960 | -99.92159 | 5026 ft | 128 kts | 344° |
| 2026-04-25 13:57 | 32.71845 | -99.92307 | 5024 ft | 127 kts | 344° |
| 2026-04-25 13:58 | 32.72729 | -99.92455 | 5024 ft | 128 kts | 344° |
| 2026-04-25 13:58 | 32.73620 | -99.92597 | 5026 ft | 128 kts | 345° |
| 2026-04-25 13:58 | 32.74498 | -99.92703 | 5041 ft | 127 kts | 346° |
| 2026-04-25 13:58 | 32.75384 | -99.92811 | 5047 ft | 128 kts | 347° |
| 2026-04-25 13:59 | 32.76275 | -99.92892 | 5065 ft | 127 kts | 347° |
| 2026-04-25 13:59 | 32.77159 | -99.92970 | 5055 ft | 129 kts | 347° |
| 2026-04-25 13:59 | 32.78007 | -99.93269 | 4990 ft | 123 kts | 316° |
| 2026-04-25 13:59 | 32.78423 | -99.94041 | 5050 ft | 107 kts | 275° |
| 2026-04-25 14:00 | 32.78326 | -99.94616 | 5008 ft | 110 kts | 242° |
| 2026-04-25 14:00 | 32.77359 | -99.95053 | 4909 ft | 128 kts | 175° |
| 2026-04-25 14:00 | 32.76625 | -99.94430 | 4869 ft | 140 kts | 128° |
| 2026-04-25 14:00 | 32.76152 | -99.93402 | 4839 ft | 140 kts | 125° |
| 2026-04-25 14:01 | 32.75626 | -99.92445 | 4798 ft | 136 kts | 139° |
| 2026-04-25 14:01 | 32.74874 | -99.91788 | 4784 ft | 132 kts | 146° |
| 2026-04-25 14:01 | 32.74368 | -99.90884 | 4860 ft | 133 kts | 121° |
| 2026-04-25 14:01 | 32.73879 | -99.89958 | 4883 ft | 131 kts | 126° |
| 2026-04-25 14:02 | 32.73466 | -99.89027 | 4921 ft | 130 kts | 134° |
| 2026-04-25 14:02 | 32.72705 | -99.88506 | 4893 ft | 123 kts | 168° |
| 2026-04-25 14:02 | 32.71925 | -99.88194 | 5032 ft | 114 kts | 170° |
| 2026-04-25 14:02 | 32.71667 | -99.88109 | 5043 ft | 114 kts | 173° |
| 2026-04-25 14:03 | 32.70351 | -99.87730 | 5095 ft | 115 kts | 183° |
| 2026-04-25 14:03 | 32.69569 | -99.87750 | 5135 ft | 113 kts | 191° |
| 2026-04-25 14:03 | 32.68786 | -99.87843 | 5191 ft | 111 kts | 193° |
| 2026-04-25 14:03 | 32.68023 | -99.87960 | 5251 ft | 110 kts | 194° |
| 2026-04-25 14:04 | 32.67248 | -99.88083 | 5282 ft | 112 kts | 194° |
| 2026-04-25 14:04 | 32.66472 | -99.88219 | 5327 ft | 112 kts | 196° |
| 2026-04-25 14:04 | 32.65688 | -99.88387 | 5326 ft | 115 kts | 197° |
| 2026-04-25 14:04 | 32.64908 | -99.88577 | 5333 ft | 115 kts | 199° |
| 2026-04-25 14:05 | 32.64185 | -99.88760 | 5350 ft | 90 kts | 199° |
| 2026-04-25 14:05 | 32.63604 | -99.88870 | 5378 ft | 81 kts | 197° |
| 2026-04-25 14:05 | 32.63025 | -99.88947 | 5239 ft | 87 kts | 195° |
| 2026-04-25 14:05 | 32.62423 | -99.89032 | 5163 ft | 86 kts | 194° |
| 2026-04-25 14:06 | 32.61830 | -99.89095 | 5086 ft | 86 kts | 194° |
| 2026-04-25 14:06 | 32.61239 | -99.89180 | 5006 ft | 85 kts | 195° |
| 2026-04-25 14:06 | 32.60639 | -99.89273 | 4904 ft | 87 kts | 195° |
| 2026-04-25 14:06 | 32.60029 | -99.89343 | 4778 ft | 90 kts | 189° |
| 2026-04-25 14:07 | 32.59397 | -99.89246 | 4671 ft | 91 kts | 180° |
| 2026-04-25 14:07 | 32.58777 | -99.89106 | 4577 ft | 90 kts | 179° |
| 2026-04-25 14:07 | 32.58168 | -99.88964 | 4482 ft | 88 kts | 179° |
| 2026-04-25 14:07 | 32.57555 | -99.88827 | 4363 ft | 88 kts | 179° |
| 2026-04-25 14:08 | 32.56933 | -99.88713 | 4277 ft | 95 kts | 180° |
| 2026-04-25 14:08 | 32.56266 | -99.88586 | 4217 ft | 98 kts | 179° |
| 2026-04-25 14:08 | 32.55572 | -99.88448 | 4142 ft | 100 kts | 178° |
| 2026-04-25 14:08 | 32.54885 | -99.88287 | 4061 ft | 101 kts | 178° |
| 2026-04-25 14:09 | 32.54207 | -99.88163 | 4035 ft | 98 kts | 178° |
| 2026-04-25 14:09 | 32.53525 | -99.87999 | 3949 ft | 102 kts | 175° |
| 2026-04-25 14:09 | 32.52829 | -99.87826 | 3862 ft | 101 kts | 177° |
| 2026-04-25 14:09 | 32.52597 | -99.87774 | 3826 ft | 100 kts | 177° |
| 2026-04-25 14:10 | 32.51429 | -99.87516 | 3597 ft | 102 kts | 178° |
| 2026-04-25 14:10 | 32.50731 | -99.87395 | 3436 ft | 102 kts | 178° |
| 2026-04-25 14:10 | 32.50016 | -99.87253 | 3210 ft | 106 kts | 178° |
| 2026-04-25 14:10 | 32.49306 | -99.87096 | 3105 ft | 102 kts | 178° |
| 2026-04-25 14:11 | 32.48615 | -99.86937 | 3022 ft | 99 kts | 177° |
| 2026-04-25 14:11 | 32.47936 | -99.86782 | 2908 ft | 100 kts | 176° |
| 2026-04-25 14:11 | 32.47241 | -99.86632 | 2760 ft | 101 kts | 178° |
| 2026-04-25 14:11 | 32.46529 | -99.86497 | 2582 ft | 104 kts | 174° |
| 2026-04-25 14:12 | 32.45826 | -99.86332 | 2465 ft | 100 kts | 174° |
| 2026-04-25 14:12 | 32.45229 | -99.86187 | 2348 ft | 78 kts | 175° |
| 2026-04-25 14:12 | 32.44719 | -99.86063 | 2170 ft | 71 kts | 174° |
| 2026-04-25 14:12 | 32.44221 | -99.85957 | 1971 ft | 72 kts | 174° |
| 2026-04-25 14:13 | 32.43740 | -99.85845 | 1798 ft | 70 kts | 173° |
| 2026-04-25 14:13 | 32.43310 | -99.85743 | 1783 ft | 50 kts | 173° |
| 2026-04-25 14:13 | 32.43033 | -99.85684 | 1780 ft | 37 kts | 168° |
| 2026-04-25 14:13 | 32.42764 | -99.85619 | 1780 ft | 38 kts | 169° |
| 2026-04-25 14:14 | 32.42540 | -99.85543 | 1780 ft | 23 kts | 175° |
| 2026-04-25 14:14 | 32.42389 | -99.85522 | 1781 ft | 24 kts | 169° |
| 2026-04-25 14:14 | 32.42321 | -99.85403 | 1780 ft | 18 kts | 81° |
| 2026-04-25 14:14 | 32.42340 | -99.85279 | 1779 ft | 4 kts | 84° |
| 2026-04-25 14:15 | 32.42340 | -99.85273 | 1779 ft | 0 kts | 84° |
| 2026-04-25 14:17 | 32.42352 | -99.85165 | 1777 ft | 26 kts | 78° |
| 2026-04-25 14:17 | 32.42404 | -99.84978 | 1777 ft | 21 kts | 64° |
| 2026-04-25 14:17 | 32.42487 | -99.84862 | 1775 ft | 15 kts | 60° |
| 2026-04-25 14:18 | 32.42539 | -99.84777 | 1774 ft | 11 kts | 359° |
| 2026-04-25 14:18 | 32.42584 | -99.84789 | 1774 ft | 0 kts | 342° |